sensor_id;sensor_type;location;lat;lon;timestamp;P1;durP1;ratioP1;P2;durP2;ratioP2
14078;SDS011;7115;50.150;8.568;2023-10-13T00:01:22;16.37;;;8.97;;
14078;SDS011;7115;50.150;8.568;2023-10-13T00:03:50;14.40;;;9.10;;
14078;SDS011;7115;50.150;8.568;2023-10-13T00:06:20;14.77;;;9.07;;
14078;SDS011;7115;50.150;8.568;2023-10-13T00:08:47;14.67;;;9.57;;
14078;SDS011;7115;50.150;8.568;2023-10-13T00:11:15;14.77;;;8.97;;
14078;SDS011;7115;50.150;8.568;2023-10-13T00:13:41;15.87;;;9.07;;
14078;SDS011;7115;50.150;8.568;2023-10-13T00:16:11;18.20;;;9.13;;
14078;SDS011;7115;50.150;8.568;2023-10-13T00:18:43;19.20;;;8.53;;
14078;SDS011;7115;50.150;8.568;2023-10-13T00:21:10;14.73;;;9.57;;
14078;SDS011;7115;50.150;8.568;2023-10-13T00:23:40;19.13;;;8.80;;
14078;SDS011;7115;50.150;8.568;2023-10-13T00:26:19;18.57;;;8.30;;
14078;SDS011;7115;50.150;8.568;2023-10-13T00:28:50;14.27;;;8.33;;
14078;SDS011;7115;50.150;8.568;2023-10-13T00:31:26;15.17;;;8.57;;
14078;SDS011;7115;50.150;8.568;2023-10-13T00:34:00;18.63;;;8.73;;
14078;SDS011;7115;50.150;8.568;2023-10-13T00:36:31;16.67;;;8.53;;
14078;SDS011;7115;50.150;8.568;2023-10-13T00:39:00;18.83;;;9.10;;
14078;SDS011;7115;50.150;8.568;2023-10-13T00:41:30;17.90;;;9.13;;
14078;SDS011;7115;50.150;8.568;2023-10-13T00:44:15;17.47;;;8.90;;
14078;SDS011;7115;50.150;8.568;2023-10-13T00:46:44;18.83;;;8.90;;
14078;SDS011;7115;50.150;8.568;2023-10-13T00:49:11;22.37;;;9.03;;
14078;SDS011;7115;50.150;8.568;2023-10-13T00:51:41;14.00;;;8.10;;
14078;SDS011;7115;50.150;8.568;2023-10-13T00:54:13;14.87;;;8.53;;
14078;SDS011;7115;50.150;8.568;2023-10-13T00:56:45;13.73;;;8.10;;
14078;SDS011;7115;50.150;8.568;2023-10-13T00:59:24;15.63;;;8.50;;
14078;SDS011;7115;50.150;8.568;2023-10-13T01:01:53;17.70;;;8.83;;
14078;SDS011;7115;50.150;8.568;2023-10-13T01:04:22;14.73;;;8.07;;
14078;SDS011;7115;50.150;8.568;2023-10-13T01:06:54;13.37;;;8.00;;
14078;SDS011;7115;50.150;8.568;2023-10-13T01:09:21;13.20;;;8.33;;
14078;SDS011;7115;50.150;8.568;2023-10-13T01:11:51;19.67;;;8.80;;
14078;SDS011;7115;50.150;8.568;2023-10-13T01:14:21;17.93;;;8.43;;
14078;SDS011;7115;50.150;8.568;2023-10-13T01:16:49;17.37;;;8.57;;
14078;SDS011;7115;50.150;8.568;2023-10-13T01:19:20;15.27;;;8.80;;
14078;SDS011;7115;50.150;8.568;2023-10-13T01:21:51;17.37;;;7.97;;
14078;SDS011;7115;50.150;8.568;2023-10-13T01:24:30;16.50;;;9.13;;
14078;SDS011;7115;50.150;8.568;2023-10-13T01:27:04;19.23;;;8.80;;
14078;SDS011;7115;50.150;8.568;2023-10-13T01:29:47;16.43;;;8.60;;
14078;SDS011;7115;50.150;8.568;2023-10-13T01:32:15;17.17;;;8.90;;
14078;SDS011;7115;50.150;8.568;2023-10-13T01:34:42;19.63;;;9.50;;
14078;SDS011;7115;50.150;8.568;2023-10-13T01:37:12;17.60;;;9.10;;
14078;SDS011;7115;50.150;8.568;2023-10-13T01:39:41;15.80;;;8.10;;
14078;SDS011;7115;50.150;8.568;2023-10-13T01:42:08;16.83;;;8.73;;
14078;SDS011;7115;50.150;8.568;2023-10-13T01:44:35;23.83;;;7.93;;
14078;SDS011;7115;50.150;8.568;2023-10-13T01:47:02;11.67;;;8.10;;
14078;SDS011;7115;50.150;8.568;2023-10-13T01:49:32;15.47;;;8.23;;
14078;SDS011;7115;50.150;8.568;2023-10-13T01:52:08;17.07;;;7.60;;
14078;SDS011;7115;50.150;8.568;2023-10-13T01:54:43;12.60;;;7.27;;
14078;SDS011;7115;50.150;8.568;2023-10-13T01:57:11;12.43;;;7.90;;
14078;SDS011;7115;50.150;8.568;2023-10-13T01:59:44;15.43;;;7.27;;
14078;SDS011;7115;50.150;8.568;2023-10-13T02:02:11;15.37;;;7.70;;
14078;SDS011;7115;50.150;8.568;2023-10-13T02:04:39;18.30;;;7.50;;
14078;SDS011;7115;50.150;8.568;2023-10-13T02:07:15;14.83;;;7.20;;
14078;SDS011;7115;50.150;8.568;2023-10-13T02:09:44;13.20;;;7.20;;
14078;SDS011;7115;50.150;8.568;2023-10-13T02:12:11;13.37;;;6.97;;
14078;SDS011;7115;50.150;8.568;2023-10-13T02:14:38;15.03;;;6.93;;
14078;SDS011;7115;50.150;8.568;2023-10-13T02:17:05;13.67;;;7.70;;
14078;SDS011;7115;50.150;8.568;2023-10-13T02:19:42;16.13;;;6.90;;
14078;SDS011;7115;50.150;8.568;2023-10-13T02:22:11;14.00;;;7.17;;
14078;SDS011;7115;50.150;8.568;2023-10-13T02:24:52;14.13;;;7.57;;
14078;SDS011;7115;50.150;8.568;2023-10-13T02:27:19;14.30;;;6.90;;
14078;SDS011;7115;50.150;8.568;2023-10-13T02:29:49;19.00;;;7.13;;
14078;SDS011;7115;50.150;8.568;2023-10-13T02:32:16;16.27;;;6.70;;
14078;SDS011;7115;50.150;8.568;2023-10-13T02:34:46;17.90;;;8.03;;
14078;SDS011;7115;50.150;8.568;2023-10-13T02:37:13;14.47;;;7.50;;
14078;SDS011;7115;50.150;8.568;2023-10-13T02:39:40;13.10;;;7.23;;
14078;SDS011;7115;50.150;8.568;2023-10-13T02:42:09;11.93;;;7.83;;
14078;SDS011;7115;50.150;8.568;2023-10-13T02:44:49;15.63;;;7.60;;
14078;SDS011;7115;50.150;8.568;2023-10-13T02:47:17;16.90;;;7.70;;
14078;SDS011;7115;50.150;8.568;2023-10-13T02:49:50;11.60;;;6.97;;
14078;SDS011;7115;50.150;8.568;2023-10-13T02:52:17;16.47;;;7.27;;
14078;SDS011;7115;50.150;8.568;2023-10-13T02:54:44;15.67;;;7.33;;
14078;SDS011;7115;50.150;8.568;2023-10-13T02:57:18;17.43;;;7.80;;
14078;SDS011;7115;50.150;8.568;2023-10-13T02:59:45;13.40;;;8.13;;
14078;SDS011;7115;50.150;8.568;2023-10-13T03:02:22;14.70;;;7.63;;
14078;SDS011;7115;50.150;8.568;2023-10-13T03:04:56;14.30;;;7.80;;
14078;SDS011;7115;50.150;8.568;2023-10-13T03:07:35;15.70;;;8.07;;
14078;SDS011;7115;50.150;8.568;2023-10-13T03:10:03;15.00;;;7.90;;
14078;SDS011;7115;50.150;8.568;2023-10-13T03:12:38;19.00;;;7.80;;
14078;SDS011;7115;50.150;8.568;2023-10-13T03:15:06;21.17;;;8.23;;
14078;SDS011;7115;50.150;8.568;2023-10-13T03:17:44;11.97;;;7.80;;
14078;SDS011;7115;50.150;8.568;2023-10-13T03:20:12;19.40;;;8.57;;
14078;SDS011;7115;50.150;8.568;2023-10-13T03:22:41;18.63;;;9.23;;
14078;SDS011;7115;50.150;8.568;2023-10-13T03:25:12;16.63;;;8.33;;
14078;SDS011;7115;50.150;8.568;2023-10-13T03:27:52;19.83;;;7.90;;
14078;SDS011;7115;50.150;8.568;2023-10-13T03:30:19;14.23;;;7.70;;
14078;SDS011;7115;50.150;8.568;2023-10-13T03:32:47;15.20;;;7.80;;
14078;SDS011;7115;50.150;8.568;2023-10-13T03:35:20;12.00;;;7.93;;
14078;SDS011;7115;50.150;8.568;2023-10-13T03:37:51;17.63;;;8.57;;
14078;SDS011;7115;50.150;8.568;2023-10-13T03:40:18;17.63;;;8.37;;
14078;SDS011;7115;50.150;8.568;2023-10-13T03:42:45;14.83;;;8.30;;
14078;SDS011;7115;50.150;8.568;2023-10-13T03:45:33;15.77;;;8.07;;
14078;SDS011;7115;50.150;8.568;2023-10-13T03:48:09;17.73;;;8.90;;
14078;SDS011;7115;50.150;8.568;2023-10-13T03:50:56;18.17;;;8.67;;
14078;SDS011;7115;50.150;8.568;2023-10-13T03:53:34;15.87;;;8.13;;
14078;SDS011;7115;50.150;8.568;2023-10-13T03:56:02;18.00;;;9.13;;
14078;SDS011;7115;50.150;8.568;2023-10-13T03:58:39;19.27;;;9.50;;
14078;SDS011;7115;50.150;8.568;2023-10-13T04:01:13;19.50;;;8.93;;
14078;SDS011;7115;50.150;8.568;2023-10-13T04:03:43;22.27;;;9.70;;
14078;SDS011;7115;50.150;8.568;2023-10-13T04:06:30;17.73;;;8.67;;
14078;SDS011;7115;50.150;8.568;2023-10-13T04:09:13;15.23;;;7.80;;
14078;SDS011;7115;50.150;8.568;2023-10-13T04:11:55;22.23;;;9.00;;
14078;SDS011;7115;50.150;8.568;2023-10-13T04:14:29;17.70;;;8.87;;
14078;SDS011;7115;50.150;8.568;2023-10-13T04:17:09;18.90;;;9.00;;
14078;SDS011;7115;50.150;8.568;2023-10-13T04:19:42;14.93;;;8.43;;
14078;SDS011;7115;50.150;8.568;2023-10-13T04:22:28;18.47;;;8.27;;
14078;SDS011;7115;50.150;8.568;2023-10-13T04:25:17;20.97;;;8.40;;
14078;SDS011;7115;50.150;8.568;2023-10-13T04:28:04;19.53;;;8.73;;
14078;SDS011;7115;50.150;8.568;2023-10-13T04:30:39;14.93;;;8.00;;
14078;SDS011;7115;50.150;8.568;2023-10-13T04:33:19;20.47;;;8.83;;
14078;SDS011;7115;50.150;8.568;2023-10-13T04:36:02;14.43;;;7.90;;
14078;SDS011;7115;50.150;8.568;2023-10-13T04:38:48;21.13;;;8.73;;
14078;SDS011;7115;50.150;8.568;2023-10-13T04:41:24;16.07;;;7.87;;
14078;SDS011;7115;50.150;8.568;2023-10-13T04:43:57;23.47;;;8.07;;
14078;SDS011;7115;50.150;8.568;2023-10-13T04:46:45;16.83;;;7.90;;
14078;SDS011;7115;50.150;8.568;2023-10-13T04:49:13;14.50;;;7.57;;
14078;SDS011;7115;50.150;8.568;2023-10-13T04:52:03;18.87;;;8.50;;
14078;SDS011;7115;50.150;8.568;2023-10-13T04:54:38;14.63;;;7.60;;
14078;SDS011;7115;50.150;8.568;2023-10-13T04:57:11;12.37;;;8.03;;
14078;SDS011;7115;50.150;8.568;2023-10-13T04:59:57;16.93;;;8.37;;
14078;SDS011;7115;50.150;8.568;2023-10-13T05:02:38;16.77;;;7.70;;
14078;SDS011;7115;50.150;8.568;2023-10-13T05:05:10;16.27;;;8.80;;
14078;SDS011;7115;50.150;8.568;2023-10-13T05:07:45;16.57;;;7.93;;
14078;SDS011;7115;50.150;8.568;2023-10-13T05:10:31;21.40;;;8.33;;
14078;SDS011;7115;50.150;8.568;2023-10-13T05:13:17;14.57;;;7.93;;
14078;SDS011;7115;50.150;8.568;2023-10-13T05:16:02;15.93;;;8.00;;
14078;SDS011;7115;50.150;8.568;2023-10-13T05:18:48;17.53;;;7.90;;
14078;SDS011;7115;50.150;8.568;2023-10-13T05:21:35;16.33;;;8.97;;
14078;SDS011;7115;50.150;8.568;2023-10-13T05:24:23;17.37;;;8.53;;
14078;SDS011;7115;50.150;8.568;2023-10-13T05:27:08;16.20;;;7.83;;
14078;SDS011;7115;50.150;8.568;2023-10-13T05:29:53;18.30;;;8.10;;
14078;SDS011;7115;50.150;8.568;2023-10-13T05:32:39;16.90;;;7.77;;
14078;SDS011;7115;50.150;8.568;2023-10-13T05:35:25;15.03;;;8.20;;
14078;SDS011;7115;50.150;8.568;2023-10-13T05:38:12;23.90;;;9.80;;
14078;SDS011;7115;50.150;8.568;2023-10-13T05:40:58;14.20;;;8.90;;
14078;SDS011;7115;50.150;8.568;2023-10-13T05:43:50;17.20;;;9.53;;
14078;SDS011;7115;50.150;8.568;2023-10-13T05:46:35;17.23;;;8.87;;
14078;SDS011;7115;50.150;8.568;2023-10-13T05:49:06;20.67;;;8.97;;
14078;SDS011;7115;50.150;8.568;2023-10-13T05:51:44;19.53;;;8.90;;
14078;SDS011;7115;50.150;8.568;2023-10-13T05:54:13;15.83;;;9.33;;
14078;SDS011;7115;50.150;8.568;2023-10-13T05:56:40;23.87;;;9.67;;
14078;SDS011;7115;50.150;8.568;2023-10-13T05:59:26;20.53;;;9.73;;
14078;SDS011;7115;50.150;8.568;2023-10-13T06:02:12;17.33;;;8.73;;
14078;SDS011;7115;50.150;8.568;2023-10-13T06:05:00;18.77;;;9.20;;
14078;SDS011;7115;50.150;8.568;2023-10-13T06:07:46;14.27;;;8.87;;
14078;SDS011;7115;50.150;8.568;2023-10-13T06:10:33;24.17;;;13.87;;
14078;SDS011;7115;50.150;8.568;2023-10-13T06:13:19;19.13;;;9.63;;
14078;SDS011;7115;50.150;8.568;2023-10-13T06:16:05;17.90;;;10.07;;
14078;SDS011;7115;50.150;8.568;2023-10-13T06:18:51;16.80;;;9.10;;
14078;SDS011;7115;50.150;8.568;2023-10-13T06:21:37;17.07;;;8.53;;
14078;SDS011;7115;50.150;8.568;2023-10-13T06:24:22;19.47;;;10.67;;
14078;SDS011;7115;50.150;8.568;2023-10-13T06:27:09;19.97;;;8.77;;
14078;SDS011;7115;50.150;8.568;2023-10-13T06:29:55;17.77;;;9.00;;
14078;SDS011;7115;50.150;8.568;2023-10-13T06:32:22;14.07;;;8.60;;
14078;SDS011;7115;50.150;8.568;2023-10-13T06:34:53;23.00;;;9.87;;
14078;SDS011;7115;50.150;8.568;2023-10-13T06:37:24;17.13;;;10.80;;
14078;SDS011;7115;50.150;8.568;2023-10-13T06:39:56;22.37;;;9.00;;
14078;SDS011;7115;50.150;8.568;2023-10-13T06:42:25;18.67;;;9.13;;
14078;SDS011;7115;50.150;8.568;2023-10-13T06:44:53;17.33;;;8.83;;
14078;SDS011;7115;50.150;8.568;2023-10-13T06:47:21;17.37;;;8.43;;
14078;SDS011;7115;50.150;8.568;2023-10-13T06:49:48;21.60;;;8.60;;
14078;SDS011;7115;50.150;8.568;2023-10-13T06:52:17;16.23;;;8.17;;
14078;SDS011;7115;50.150;8.568;2023-10-13T06:54:44;15.80;;;8.13;;
14078;SDS011;7115;50.150;8.568;2023-10-13T06:57:12;22.50;;;8.73;;
14078;SDS011;7115;50.150;8.568;2023-10-13T06:59:48;20.57;;;7.80;;
14078;SDS011;7115;50.150;8.568;2023-10-13T07:02:15;18.50;;;8.03;;
14078;SDS011;7115;50.150;8.568;2023-10-13T07:04:54;17.37;;;9.20;;
14078;SDS011;7115;50.150;8.568;2023-10-13T07:07:34;14.33;;;7.90;;
14078;SDS011;7115;50.150;8.568;2023-10-13T07:10:02;17.80;;;7.60;;
14078;SDS011;7115;50.150;8.568;2023-10-13T07:12:34;22.47;;;7.73;;
14078;SDS011;7115;50.150;8.568;2023-10-13T07:15:02;18.77;;;7.50;;
14078;SDS011;7115;50.150;8.568;2023-10-13T07:17:46;17.60;;;8.73;;
14078;SDS011;7115;50.150;8.568;2023-10-13T07:20:14;17.77;;;9.17;;
14078;SDS011;7115;50.150;8.568;2023-10-13T07:22:42;15.43;;;7.60;;
14078;SDS011;7115;50.150;8.568;2023-10-13T07:25:21;17.17;;;8.20;;
14078;SDS011;7115;50.150;8.568;2023-10-13T07:27:53;13.73;;;8.00;;
14078;SDS011;7115;50.150;8.568;2023-10-13T07:30:22;18.43;;;8.03;;
14078;SDS011;7115;50.150;8.568;2023-10-13T07:32:53;15.63;;;8.20;;
14078;SDS011;7115;50.150;8.568;2023-10-13T07:35:24;13.60;;;7.70;;
14078;SDS011;7115;50.150;8.568;2023-10-13T07:37:51;17.53;;;8.37;;
14078;SDS011;7115;50.150;8.568;2023-10-13T07:40:21;14.10;;;8.87;;
14078;SDS011;7115;50.150;8.568;2023-10-13T07:43:09;15.90;;;8.17;;
14078;SDS011;7115;50.150;8.568;2023-10-13T07:45:38;19.77;;;7.93;;
14078;SDS011;7115;50.150;8.568;2023-10-13T07:48:07;13.50;;;7.70;;
14078;SDS011;7115;50.150;8.568;2023-10-13T07:50:43;13.80;;;7.87;;
14078;SDS011;7115;50.150;8.568;2023-10-13T07:53:12;22.83;;;10.50;;
14078;SDS011;7115;50.150;8.568;2023-10-13T07:55:51;20.40;;;8.83;;
14078;SDS011;7115;50.150;8.568;2023-10-13T07:58:29;14.23;;;7.60;;
14078;SDS011;7115;50.150;8.568;2023-10-13T08:01:00;15.93;;;8.27;;
14078;SDS011;7115;50.150;8.568;2023-10-13T08:03:33;15.07;;;7.50;;
14078;SDS011;7115;50.150;8.568;2023-10-13T08:06:11;15.73;;;7.50;;
14078;SDS011;7115;50.150;8.568;2023-10-13T08:08:38;18.03;;;8.43;;
14078;SDS011;7115;50.150;8.568;2023-10-13T08:11:06;22.30;;;8.07;;
14078;SDS011;7115;50.150;8.568;2023-10-13T08:13:49;16.50;;;7.40;;
14078;SDS011;7115;50.150;8.568;2023-10-13T08:16:36;13.43;;;7.13;;
14078;SDS011;7115;50.150;8.568;2023-10-13T08:19:24;15.20;;;7.83;;
14078;SDS011;7115;50.150;8.568;2023-10-13T08:22:06;24.63;;;7.77;;
14078;SDS011;7115;50.150;8.568;2023-10-13T08:24:47;16.50;;;6.87;;
14078;SDS011;7115;50.150;8.568;2023-10-13T08:27:15;18.20;;;7.00;;
14078;SDS011;7115;50.150;8.568;2023-10-13T08:30:15;11.93;;;6.07;;
14078;SDS011;7115;50.150;8.568;2023-10-13T08:33:01;13.10;;;6.97;;
14078;SDS011;7115;50.150;8.568;2023-10-13T08:35:43;17.70;;;6.97;;
14078;SDS011;7115;50.150;8.568;2023-10-13T08:38:29;12.73;;;6.30;;
14078;SDS011;7115;50.150;8.568;2023-10-13T08:41:00;18.20;;;7.03;;
14078;SDS011;7115;50.150;8.568;2023-10-13T08:43:47;17.40;;;6.57;;
14078;SDS011;7115;50.150;8.568;2023-10-13T08:46:18;12.90;;;6.03;;
14078;SDS011;7115;50.150;8.568;2023-10-13T08:48:57;11.50;;;5.80;;
14078;SDS011;7115;50.150;8.568;2023-10-13T08:51:42;13.33;;;5.77;;
14078;SDS011;7115;50.150;8.568;2023-10-13T08:54:11;9.83;;;5.80;;
14078;SDS011;7115;50.150;8.568;2023-10-13T08:56:46;11.67;;;6.03;;
14078;SDS011;7115;50.150;8.568;2023-10-13T08:59:21;10.07;;;5.13;;
14078;SDS011;7115;50.150;8.568;2023-10-13T09:02:11;17.97;;;6.17;;
14078;SDS011;7115;50.150;8.568;2023-10-13T09:04:45;8.63;;;5.33;;
14078;SDS011;7115;50.150;8.568;2023-10-13T09:07:13;11.63;;;5.37;;
14078;SDS011;7115;50.150;8.568;2023-10-13T09:09:49;7.63;;;5.43;;
14078;SDS011;7115;50.150;8.568;2023-10-13T09:12:22;14.60;;;5.60;;
14078;SDS011;7115;50.150;8.568;2023-10-13T09:15:00;11.80;;;5.17;;
14078;SDS011;7115;50.150;8.568;2023-10-13T09:17:40;13.00;;;5.33;;
14078;SDS011;7115;50.150;8.568;2023-10-13T09:20:35;12.23;;;5.00;;
14078;SDS011;7115;50.150;8.568;2023-10-13T09:23:07;12.47;;;5.33;;
14078;SDS011;7115;50.150;8.568;2023-10-13T09:25:36;12.57;;;5.33;;
14078;SDS011;7115;50.150;8.568;2023-10-13T09:28:10;14.07;;;5.80;;
14078;SDS011;7115;50.150;8.568;2023-10-13T09:30:44;11.23;;;5.83;;
14078;SDS011;7115;50.150;8.568;2023-10-13T09:33:12;11.93;;;5.97;;
14078;SDS011;7115;50.150;8.568;2023-10-13T09:35:44;13.03;;;5.57;;
14078;SDS011;7115;50.150;8.568;2023-10-13T09:38:18;10.53;;;5.73;;
14078;SDS011;7115;50.150;8.568;2023-10-13T09:40:45;10.40;;;5.90;;
14078;SDS011;7115;50.150;8.568;2023-10-13T09:43:28;17.80;;;6.13;;
14078;SDS011;7115;50.150;8.568;2023-10-13T09:45:58;15.10;;;5.80;;
14078;SDS011;7115;50.150;8.568;2023-10-13T09:48:33;9.53;;;5.53;;
14078;SDS011;7115;50.150;8.568;2023-10-13T09:51:03;14.23;;;5.77;;
14078;SDS011;7115;50.150;8.568;2023-10-13T09:53:35;15.57;;;5.60;;
14078;SDS011;7115;50.150;8.568;2023-10-13T09:56:26;15.57;;;5.73;;
14078;SDS011;7115;50.150;8.568;2023-10-13T09:58:58;13.00;;;6.00;;
14078;SDS011;7115;50.150;8.568;2023-10-13T10:01:36;11.80;;;5.73;;
14078;SDS011;7115;50.150;8.568;2023-10-13T10:04:07;11.43;;;5.50;;
14078;SDS011;7115;50.150;8.568;2023-10-13T10:06:52;12.20;;;5.50;;
14078;SDS011;7115;50.150;8.568;2023-10-13T10:09:25;12.63;;;5.53;;
14078;SDS011;7115;50.150;8.568;2023-10-13T10:15:06;12.60;;;5.40;;
14078;SDS011;7115;50.150;8.568;2023-10-13T10:17:38;8.57;;;5.53;;
14078;SDS011;7115;50.150;8.568;2023-10-13T10:20:07;11.13;;;4.80;;
14078;SDS011;7115;50.150;8.568;2023-10-13T10:22:42;8.33;;;4.83;;
14078;SDS011;7115;50.150;8.568;2023-10-13T10:25:15;12.83;;;5.30;;
14078;SDS011;7115;50.150;8.568;2023-10-13T10:27:55;8.63;;;5.13;;
14078;SDS011;7115;50.150;8.568;2023-10-13T10:30:26;13.00;;;5.33;;
14078;SDS011;7115;50.150;8.568;2023-10-13T10:32:54;11.90;;;5.10;;
14078;SDS011;7115;50.150;8.568;2023-10-13T10:35:42;8.00;;;4.63;;
14078;SDS011;7115;50.150;8.568;2023-10-13T10:38:12;6.87;;;4.40;;
14078;SDS011;7115;50.150;8.568;2023-10-13T10:40:50;7.83;;;4.57;;
14078;SDS011;7115;50.150;8.568;2023-10-13T10:43:26;13.23;;;5.03;;
14078;SDS011;7115;50.150;8.568;2023-10-13T10:45:59;8.80;;;4.80;;
14078;SDS011;7115;50.150;8.568;2023-10-13T10:48:26;8.77;;;4.43;;
14078;SDS011;7115;50.150;8.568;2023-10-13T10:51:01;7.80;;;4.93;;
14078;SDS011;7115;50.150;8.568;2023-10-13T10:53:34;12.90;;;5.30;;
14078;SDS011;7115;50.150;8.568;2023-10-13T10:56:10;8.23;;;4.90;;
14078;SDS011;7115;50.150;8.568;2023-10-13T10:58:49;11.03;;;4.93;;
14078;SDS011;7115;50.150;8.568;2023-10-13T11:01:21;8.87;;;5.33;;
14078;SDS011;7115;50.150;8.568;2023-10-13T11:03:58;7.53;;;4.67;;
14078;SDS011;7115;50.150;8.568;2023-10-13T11:06:35;11.30;;;5.27;;
14078;SDS011;7115;50.150;8.568;2023-10-13T11:09:11;11.77;;;5.33;;
14078;SDS011;7115;50.150;8.568;2023-10-13T11:12:08;12.43;;;5.80;;
14078;SDS011;7115;50.150;8.568;2023-10-13T11:14:41;12.63;;;5.20;;
14078;SDS011;7115;50.150;8.568;2023-10-13T11:17:18;9.20;;;4.87;;
14078;SDS011;7115;50.150;8.568;2023-10-13T11:19:51;6.40;;;4.80;;
14078;SDS011;7115;50.150;8.568;2023-10-13T11:22:18;7.27;;;4.83;;
14078;SDS011;7115;50.150;8.568;2023-10-13T11:25:06;12.03;;;5.47;;
14078;SDS011;7115;50.150;8.568;2023-10-13T11:27:37;8.83;;;5.10;;
14078;SDS011;7115;50.150;8.568;2023-10-13T11:30:17;6.90;;;4.53;;
14078;SDS011;7115;50.150;8.568;2023-10-13T11:33:18;12.63;;;5.83;;
14078;SDS011;7115;50.150;8.568;2023-10-13T11:35:50;8.17;;;4.87;;
14078;SDS011;7115;50.150;8.568;2023-10-13T11:38:20;10.63;;;5.67;;
14078;SDS011;7115;50.150;8.568;2023-10-13T11:40:57;8.73;;;5.20;;
14078;SDS011;7115;50.150;8.568;2023-10-13T11:43:31;7.43;;;5.03;;
14078;SDS011;7115;50.150;8.568;2023-10-13T11:46:24;9.73;;;5.17;;
14078;SDS011;7115;50.150;8.568;2023-10-13T11:49:13;7.83;;;4.40;;
14078;SDS011;7115;50.150;8.568;2023-10-13T11:51:40;7.67;;;4.60;;
14078;SDS011;7115;50.150;8.568;2023-10-13T11:54:11;9.47;;;4.97;;
14078;SDS011;7115;50.150;8.568;2023-10-13T11:56:40;7.63;;;4.83;;
14078;SDS011;7115;50.150;8.568;2023-10-13T11:59:07;9.10;;;5.20;;
14078;SDS011;7115;50.150;8.568;2023-10-13T12:01:43;11.07;;;5.00;;
14078;SDS011;7115;50.150;8.568;2023-10-13T12:04:29;12.20;;;4.60;;
14078;SDS011;7115;50.150;8.568;2023-10-13T12:07:14;9.13;;;5.30;;
14078;SDS011;7115;50.150;8.568;2023-10-13T12:10:06;7.97;;;4.90;;
14078;SDS011;7115;50.150;8.568;2023-10-13T12:12:43;10.83;;;5.13;;
14078;SDS011;7115;50.150;8.568;2023-10-13T12:15:12;9.67;;;5.40;;
14078;SDS011;7115;50.150;8.568;2023-10-13T12:17:52;9.30;;;4.50;;
14078;SDS011;7115;50.150;8.568;2023-10-13T12:20:19;10.17;;;4.70;;
14078;SDS011;7115;50.150;8.568;2023-10-13T12:22:59;9.13;;;4.77;;
14078;SDS011;7115;50.150;8.568;2023-10-13T12:25:37;8.27;;;5.20;;
14078;SDS011;7115;50.150;8.568;2023-10-13T12:28:24;9.10;;;5.77;;
14078;SDS011;7115;50.150;8.568;2023-10-13T12:30:54;9.47;;;4.73;;
14078;SDS011;7115;50.150;8.568;2023-10-13T12:33:24;6.67;;;4.43;;
14078;SDS011;7115;50.150;8.568;2023-10-13T12:35:56;10.60;;;4.60;;
14078;SDS011;7115;50.150;8.568;2023-10-13T12:38:30;7.43;;;4.73;;
14078;SDS011;7115;50.150;8.568;2023-10-13T12:41:04;10.87;;;5.07;;
14078;SDS011;7115;50.150;8.568;2023-10-13T12:44:02;9.53;;;4.30;;
14078;SDS011;7115;50.150;8.568;2023-10-13T12:46:49;5.53;;;3.87;;
14078;SDS011;7115;50.150;8.568;2023-10-13T12:49:35;8.40;;;4.50;;
14078;SDS011;7115;50.150;8.568;2023-10-13T12:52:16;6.27;;;4.50;;
14078;SDS011;7115;50.150;8.568;2023-10-13T12:54:43;7.17;;;4.30;;
14078;SDS011;7115;50.150;8.568;2023-10-13T12:57:13;6.77;;;4.60;;
14078;SDS011;7115;50.150;8.568;2023-10-13T12:59:42;10.50;;;4.00;;
14078;SDS011;7115;50.150;8.568;2023-10-13T13:02:09;7.70;;;4.47;;
14078;SDS011;7115;50.150;8.568;2023-10-13T13:04:41;6.13;;;4.17;;
14078;SDS011;7115;50.150;8.568;2023-10-13T13:07:11;13.40;;;7.00;;
14078;SDS011;7115;50.150;8.568;2023-10-13T13:09:40;7.87;;;4.87;;
14078;SDS011;7115;50.150;8.568;2023-10-13T13:12:07;10.87;;;4.50;;
14078;SDS011;7115;50.150;8.568;2023-10-13T13:14:39;10.70;;;4.20;;
14078;SDS011;7115;50.150;8.568;2023-10-13T13:17:14;9.87;;;4.53;;
14078;SDS011;7115;50.150;8.568;2023-10-13T13:19:41;10.87;;;4.67;;
14078;SDS011;7115;50.150;8.568;2023-10-13T13:22:08;6.57;;;4.67;;
14078;SDS011;7115;50.150;8.568;2023-10-13T13:24:38;9.37;;;4.47;;
14078;SDS011;7115;50.150;8.568;2023-10-13T13:27:09;7.70;;;4.37;;
14078;SDS011;7115;50.150;8.568;2023-10-13T13:29:40;6.53;;;4.70;;
14078;SDS011;7115;50.150;8.568;2023-10-13T13:32:07;8.97;;;4.43;;
14078;SDS011;7115;50.150;8.568;2023-10-13T13:34:45;7.13;;;4.30;;
14078;SDS011;7115;50.150;8.568;2023-10-13T13:37:21;9.50;;;6.70;;
14078;SDS011;7115;50.150;8.568;2023-10-13T13:39:48;10.27;;;4.57;;
14078;SDS011;7115;50.150;8.568;2023-10-13T13:42:18;13.27;;;4.40;;
14078;SDS011;7115;50.150;8.568;2023-10-13T13:44:46;9.00;;;4.10;;
14078;SDS011;7115;50.150;8.568;2023-10-13T13:47:13;13.33;;;4.40;;
14078;SDS011;7115;50.150;8.568;2023-10-13T13:49:41;6.57;;;3.30;;
14078;SDS011;7115;50.150;8.568;2023-10-13T13:52:14;7.23;;;4.30;;
14078;SDS011;7115;50.150;8.568;2023-10-13T13:54:44;10.23;;;4.30;;
14078;SDS011;7115;50.150;8.568;2023-10-13T13:57:11;7.33;;;4.13;;
14078;SDS011;7115;50.150;8.568;2023-10-13T13:59:39;9.23;;;4.73;;
14078;SDS011;7115;50.150;8.568;2023-10-13T14:02:11;5.67;;;4.00;;
14078;SDS011;7115;50.150;8.568;2023-10-13T14:04:47;12.17;;;4.60;;
14078;SDS011;7115;50.150;8.568;2023-10-13T14:07:19;10.43;;;4.40;;
14078;SDS011;7115;50.150;8.568;2023-10-13T14:09:51;10.00;;;4.30;;
14078;SDS011;7115;50.150;8.568;2023-10-13T14:12:18;7.27;;;4.10;;
14078;SDS011;7115;50.150;8.568;2023-10-13T14:14:45;9.03;;;4.73;;
14078;SDS011;7115;50.150;8.568;2023-10-13T14:17:24;8.67;;;4.33;;
14078;SDS011;7115;50.150;8.568;2023-10-13T14:19:56;16.13;;;4.37;;
14078;SDS011;7115;50.150;8.568;2023-10-13T14:22:25;6.93;;;4.30;;
14078;SDS011;7115;50.150;8.568;2023-10-13T14:24:52;10.27;;;4.33;;
14078;SDS011;7115;50.150;8.568;2023-10-13T14:27:22;6.10;;;4.30;;
14078;SDS011;7115;50.150;8.568;2023-10-13T14:29:50;9.53;;;4.03;;
14078;SDS011;7115;50.150;8.568;2023-10-13T14:32:20;8.80;;;4.07;;
14078;SDS011;7115;50.150;8.568;2023-10-13T14:34:51;7.00;;;3.70;;
14078;SDS011;7115;50.150;8.568;2023-10-13T14:37:22;9.10;;;4.07;;
14078;SDS011;7115;50.150;8.568;2023-10-13T14:39:56;10.40;;;4.20;;
14078;SDS011;7115;50.150;8.568;2023-10-13T14:42:24;7.30;;;3.60;;
14078;SDS011;7115;50.150;8.568;2023-10-13T14:44:51;7.23;;;4.13;;
14078;SDS011;7115;50.150;8.568;2023-10-13T14:47:22;8.27;;;3.93;;
14078;SDS011;7115;50.150;8.568;2023-10-13T14:49:52;8.33;;;4.07;;
14078;SDS011;7115;50.150;8.568;2023-10-13T14:52:21;5.33;;;3.57;;
14078;SDS011;7115;50.150;8.568;2023-10-13T14:54:49;9.13;;;3.53;;
14078;SDS011;7115;50.150;8.568;2023-10-13T14:57:21;14.73;;;3.97;;
14078;SDS011;7115;50.150;8.568;2023-10-13T14:59:51;7.47;;;3.83;;
14078;SDS011;7115;50.150;8.568;2023-10-13T15:02:18;6.60;;;4.07;;
14078;SDS011;7115;50.150;8.568;2023-10-13T15:04:46;10.90;;;4.57;;
14078;SDS011;7115;50.150;8.568;2023-10-13T15:07:14;8.60;;;3.97;;
14078;SDS011;7115;50.150;8.568;2023-10-13T15:09:42;5.77;;;3.37;;
14078;SDS011;7115;50.150;8.568;2023-10-13T15:12:11;10.67;;;4.30;;
14078;SDS011;7115;50.150;8.568;2023-10-13T15:14:44;7.33;;;3.20;;
14078;SDS011;7115;50.150;8.568;2023-10-13T15:17:11;11.47;;;4.57;;
14078;SDS011;7115;50.150;8.568;2023-10-13T15:19:42;8.23;;;3.87;;
14078;SDS011;7115;50.150;8.568;2023-10-13T15:22:10;9.47;;;3.70;;
14078;SDS011;7115;50.150;8.568;2023-10-13T15:24:43;9.37;;;3.67;;
14078;SDS011;7115;50.150;8.568;2023-10-13T15:27:12;9.03;;;3.83;;
14078;SDS011;7115;50.150;8.568;2023-10-13T15:29:41;7.57;;;3.50;;
14078;SDS011;7115;50.150;8.568;2023-10-13T15:32:08;7.33;;;3.90;;
14078;SDS011;7115;50.150;8.568;2023-10-13T15:34:41;8.03;;;3.33;;
14078;SDS011;7115;50.150;8.568;2023-10-13T15:37:08;7.27;;;3.47;;